createdAt,value
2018-09-27T00:01:22.694Z,4.57
2018-09-27T00:03:49.209Z,3.87
2018-09-27T00:06:16.772Z,3.40
2018-09-27T00:08:45.070Z,9.47
2018-09-27T00:11:11.516Z,4.87
2018-09-27T00:13:38.044Z,6.00
2018-09-27T00:16:04.490Z,6.43
2018-09-27T00:18:30.967Z,6.30
2018-09-27T00:20:57.369Z,4.40
2018-09-27T00:23:23.951Z,4.10
2018-09-27T00:25:50.598Z,4.77
2018-09-27T00:28:17.050Z,3.60
2018-09-27T00:30:43.658Z,3.73
2018-09-27T00:33:11.044Z,5.07
2018-09-27T00:35:37.405Z,4.53
2018-09-27T00:38:04.144Z,4.17
2018-09-27T00:40:30.788Z,8.33
2018-09-27T00:42:57.459Z,3.87
2018-09-27T00:45:25.061Z,4.27
2018-09-27T00:47:51.419Z,4.87
2018-09-27T00:50:17.887Z,5.43
2018-09-27T00:52:44.384Z,3.90
2018-09-27T00:55:11.604Z,5.30
2018-09-27T00:57:38.055Z,4.53
2018-09-27T01:00:05.162Z,3.57
2018-09-27T01:02:32.477Z,3.77
2018-09-27T01:04:59.292Z,4.80
2018-09-27T01:07:25.728Z,4.10
2018-09-27T01:09:52.272Z,3.90
2018-09-27T01:12:18.889Z,5.43
2018-09-27T01:14:53.278Z,3.33
2018-09-27T01:17:19.726Z,4.13
2018-09-27T01:19:48.173Z,3.80
2018-09-27T01:22:14.738Z,4.97
2018-09-27T01:24:41.716Z,8.13
2018-09-27T01:27:08.381Z,4.93
2018-09-27T01:29:36.204Z,7.63
2018-09-27T01:32:02.665Z,5.33
2018-09-27T01:34:29.617Z,3.10
2018-09-27T01:36:56.134Z,4.97
2018-09-27T01:39:23.258Z,6.00
2018-09-27T01:41:49.823Z,4.53
2018-09-27T01:44:16.364Z,5.00
2018-09-27T01:46:43.490Z,4.70
2018-09-27T01:49:09.799Z,4.90
2018-09-27T01:51:36.271Z,5.30
2018-09-27T01:54:02.950Z,3.83
2018-09-27T01:56:29.327Z,4.03
2018-09-27T01:58:57.446Z,4.57
2018-09-27T02:01:24.119Z,8.07
2018-09-27T02:03:50.641Z,5.30
2018-09-27T02:06:17.239Z,4.60
2018-09-27T02:08:44.030Z,5.13
2018-09-27T02:11:11.066Z,4.60
2018-09-27T02:13:37.624Z,5.33
2018-09-27T02:16:04.569Z,4.63
2018-09-27T02:18:31.354Z,4.20
2018-09-27T02:20:59.332Z,6.57
2018-09-27T02:23:27.513Z,4.23
2018-09-27T02:25:54.466Z,5.13
2018-09-27T02:28:21.273Z,3.63
2018-09-27T02:30:49.464Z,6.57
2018-09-27T02:33:15.776Z,5.27
2018-09-27T02:35:43.455Z,4.13
2018-09-27T02:38:10.276Z,5.17
2018-09-27T02:40:36.977Z,3.90
2018-09-27T02:43:03.459Z,4.10
2018-09-27T02:45:30.827Z,4.73
2018-09-27T02:47:57.304Z,3.97
2018-09-27T02:50:24.059Z,3.70
2018-09-27T02:52:50.934Z,6.70
2018-09-27T02:55:18.692Z,6.47
2018-09-27T02:57:45.368Z,8.37
2018-09-27T03:00:12.184Z,4.90
2018-09-27T03:02:38.633Z,3.43
2018-09-27T03:05:05.128Z,4.23
2018-09-27T03:07:31.716Z,7.07
2018-09-27T03:09:58.642Z,3.87
2018-09-27T03:12:25.230Z,5.60
2018-09-27T03:14:51.742Z,4.33
2018-09-27T03:17:18.250Z,3.90
2018-09-27T03:19:44.864Z,5.70
2018-09-27T03:22:11.322Z,4.50
2018-09-27T03:24:38.573Z,3.87
2018-09-27T03:27:06.399Z,5.20
2018-09-27T03:29:33.113Z,4.37
2018-09-27T03:31:59.711Z,3.93
2018-09-27T03:34:26.352Z,4.07
2018-09-27T03:36:53.101Z,3.70
2018-09-27T03:39:19.481Z,3.40
2018-09-27T03:41:46.330Z,4.00
2018-09-27T03:44:13.581Z,4.33
2018-09-27T03:46:40.825Z,4.30
2018-09-27T03:49:07.339Z,4.30
2018-09-27T03:51:34.733Z,5.00
2018-09-27T03:54:01.316Z,6.00
2018-09-27T03:56:27.899Z,5.50
2018-09-27T03:58:55.619Z,4.50
2018-09-27T04:01:22.245Z,5.87
2018-09-27T04:03:48.909Z,4.13
2018-09-27T04:06:16.289Z,6.87
2018-09-27T04:08:43.081Z,6.30
2018-09-27T04:11:09.786Z,5.63
2018-09-27T04:13:36.274Z,5.70
2018-09-27T04:16:03.541Z,5.12
2018-09-27T04:18:30.773Z,5.97
2018-09-27T04:20:57.313Z,7.70
2018-09-27T04:23:23.914Z,5.73
2018-09-27T04:25:51.117Z,4.10
2018-09-27T04:28:18.603Z,4.93
2018-09-27T04:30:45.112Z,4.57
2018-09-27T04:33:11.658Z,6.87
2018-09-27T04:35:39.017Z,4.43
2018-09-27T04:38:06.878Z,4.53
2018-09-27T04:40:35.057Z,4.53
2018-09-27T04:43:03.378Z,9.17
2018-09-27T04:45:30.023Z,6.25
2018-09-27T04:47:56.970Z,4.10
2018-09-27T04:50:24.598Z,4.75
2018-09-27T04:52:51.329Z,4.73
2018-09-27T04:55:18.878Z,5.83
2018-09-27T04:57:46.337Z,5.17
2018-09-27T05:00:13.553Z,6.30
2018-09-27T05:02:42.116Z,10.43
2018-09-27T05:05:09.460Z,8.00
2018-09-27T05:07:37.540Z,8.10
2018-09-27T05:10:04.008Z,7.07
2018-09-27T05:12:30.486Z,7.00
2018-09-27T05:14:57.913Z,13.20
2018-09-27T05:17:24.515Z,9.90
2018-09-27T05:19:50.985Z,6.93
2018-09-27T05:22:18.217Z,5.43
2018-09-27T05:24:44.894Z,5.80
2018-09-27T05:27:18.151Z,6.10
2018-09-27T05:29:44.925Z,4.30
2018-09-27T05:32:11.606Z,5.50
2018-09-27T05:34:38.462Z,7.50
2018-09-27T05:37:05.366Z,5.03
2018-09-27T05:39:31.971Z,5.47
2018-09-27T05:41:58.478Z,5.20
2018-09-27T05:44:24.928Z,5.47
2018-09-27T05:46:51.524Z,6.07
2018-09-27T05:49:18.210Z,6.53
2018-09-27T05:51:44.729Z,6.40
2018-09-27T05:54:11.234Z,6.00
2018-09-27T05:56:37.949Z,7.00
2018-09-27T05:59:05.287Z,5.43
2018-09-27T06:01:31.916Z,7.23
2018-09-27T06:03:58.648Z,5.60
2018-09-27T06:06:27.125Z,5.15
2018-09-27T06:08:54.408Z,5.90
2018-09-27T06:11:20.985Z,6.97
2018-09-27T06:13:47.468Z,10.93
2018-09-27T06:16:13.890Z,7.00
2018-09-27T06:18:40.516Z,6.60
2018-09-27T06:21:07.444Z,6.60
2018-09-27T06:23:34.573Z,8.97
2018-09-27T06:26:01.912Z,5.43
2018-09-27T06:28:29.045Z,6.00
2018-09-27T06:30:55.544Z,7.60
2018-09-27T06:33:22.634Z,5.60
2018-09-27T06:35:49.617Z,6.90
2018-09-27T06:38:16.136Z,6.47
2018-09-27T06:40:43.621Z,9.87
2018-09-27T06:43:11.651Z,12.27
2018-09-27T06:45:38.259Z,7.20
2018-09-27T06:48:05.476Z,7.10
2018-09-27T06:50:32.009Z,6.77
2018-09-27T06:52:59.377Z,8.20
2018-09-27T06:55:26.795Z,7.10
2018-09-27T06:57:53.184Z,6.70
2018-09-27T07:00:19.618Z,6.93
2018-09-27T07:02:45.950Z,7.23
2018-09-27T07:05:12.559Z,7.63
2018-09-27T07:07:38.965Z,9.40
2018-09-27T07:10:05.444Z,7.63
2018-09-27T07:12:32.019Z,8.77
2018-09-27T07:14:58.230Z,7.93
2018-09-27T07:17:24.697Z,8.27
2018-09-27T07:19:51.451Z,8.30
2018-09-27T07:22:17.786Z,8.37
2018-09-27T07:24:44.268Z,7.80
2018-09-27T07:27:10.626Z,8.37
2018-09-27T07:29:37.309Z,7.53
2018-09-27T07:32:04.024Z,7.53
2018-09-27T07:34:30.390Z,7.90
2018-09-27T07:36:57.317Z,9.17
2018-09-27T07:39:24.581Z,8.93
2018-09-27T07:41:50.923Z,8.87
2018-09-27T07:44:17.811Z,6.77
2018-09-27T07:46:44.192Z,7.60
2018-09-27T07:49:11.481Z,8.00
2018-09-27T07:51:39.327Z,11.97
2018-09-27T07:54:07.713Z,11.40
2018-09-27T07:56:34.894Z,7.17
2018-09-27T07:59:02.053Z,7.93
2018-09-27T08:01:29.224Z,7.97
2018-09-27T08:03:56.318Z,10.17
2018-09-27T08:06:24.513Z,6.83
2018-09-27T08:08:51.719Z,6.67
2018-09-27T08:11:18.221Z,9.77
2018-09-27T08:13:44.873Z,9.80
2018-09-27T08:16:11.260Z,10.43
2018-09-27T08:18:37.722Z,7.33
2018-09-27T08:21:04.429Z,7.23
2018-09-27T08:23:30.751Z,7.10
2018-09-27T08:25:57.420Z,11.03
2018-09-27T08:28:24.227Z,11.50
2018-09-27T08:30:50.890Z,8.57
2018-09-27T08:33:18.007Z,7.13
2018-09-27T08:35:44.528Z,9.90
2018-09-27T08:38:11.064Z,9.20
2018-09-27T08:40:37.484Z,10.63
2018-09-27T08:43:03.851Z,13.10
2018-09-27T08:45:30.826Z,11.60
2018-09-27T08:47:57.658Z,9.57
2018-09-27T08:50:24.773Z,12.80
2018-09-27T08:52:51.033Z,8.83
2018-09-27T08:55:17.515Z,10.53
2018-09-27T08:57:43.873Z,10.23
2018-09-27T09:00:10.327Z,8.03
2018-09-27T09:02:36.717Z,9.33
2018-09-27T09:05:03.173Z,10.70
2018-09-27T09:07:29.651Z,14.83
2018-09-27T09:09:56.089Z,12.57
2018-09-27T09:12:28.146Z,13.80
2018-09-27T09:14:58.159Z,15.00
2018-09-27T09:17:27.126Z,12.03
2018-09-27T09:19:53.752Z,11.50
2018-09-27T09:22:20.372Z,10.70
2018-09-27T09:27:21.338Z,10.77
2018-09-27T09:29:50.797Z,9.10
2018-09-27T09:32:17.297Z,9.93
2018-09-27T09:34:43.573Z,9.00
2018-09-27T09:37:09.990Z,9.37
2018-09-27T09:39:38.313Z,9.03
2018-09-27T09:42:04.671Z,11.10
2018-09-27T09:44:31.376Z,11.10
2018-09-27T09:46:58.829Z,11.07
2018-09-27T09:49:25.348Z,9.13
2018-09-27T09:51:51.866Z,9.00
2018-09-27T09:54:18.729Z,8.17
2018-09-27T09:56:46.626Z,14.50
2018-09-27T09:59:13.130Z,9.60
2018-09-27T10:01:39.728Z,9.10
2018-09-27T10:04:06.031Z,8.17
2018-09-27T10:06:32.872Z,7.00
2018-09-27T10:09:00.460Z,6.07
2018-09-27T10:11:27.230Z,14.10
2018-09-27T10:13:55.061Z,9.93
2018-09-27T10:16:22.329Z,8.73
2018-09-27T10:18:48.849Z,7.40
2018-09-27T10:21:15.554Z,9.03
2018-09-27T10:23:41.897Z,10.37
2018-09-27T10:26:09.063Z,7.80
2018-09-27T10:28:35.746Z,9.57
2018-09-27T10:31:02.067Z,9.60
2018-09-27T10:33:30.327Z,10.00
2018-09-27T10:35:57.588Z,9.40
2018-09-27T10:38:24.505Z,7.10
2018-09-27T10:40:52.602Z,7.00
2018-09-27T10:43:19.238Z,7.27
2018-09-27T10:45:45.573Z,8.50
2018-09-27T10:48:12.206Z,6.10
2018-09-27T10:50:38.628Z,7.47
2018-09-27T10:53:04.959Z,8.00
2018-09-27T10:55:33.651Z,6.00
2018-09-27T10:58:00.048Z,9.03
2018-09-27T11:00:26.724Z,6.33
2018-09-27T11:02:53.045Z,5.80
2018-09-27T11:05:20.100Z,4.23
2018-09-27T11:07:46.410Z,6.27
2018-09-27T11:10:13.420Z,8.30
2018-09-27T11:12:39.816Z,7.00
2018-09-27T11:15:06.138Z,3.63
2018-09-27T11:17:33.217Z,3.70
2018-09-27T11:19:59.556Z,2.87
2018-09-27T11:22:25.856Z,4.50
2018-09-27T11:24:52.150Z,5.00
2018-09-27T11:27:19.233Z,4.13
2018-09-27T11:29:52.370Z,4.33
2018-09-27T11:32:34.537Z,5.90
2018-09-27T11:35:00.807Z,5.40
2018-09-27T11:37:27.118Z,3.80
2018-09-27T11:39:53.410Z,5.20
2018-09-27T11:42:19.734Z,8.50
2018-09-27T11:44:46.030Z,3.47
2018-09-27T11:47:12.412Z,3.80
2018-09-27T11:49:39.597Z,3.90
2018-09-27T11:52:06.477Z,4.73
2018-09-27T11:54:33.590Z,3.60
2018-09-27T11:57:00.773Z,3.10
2018-09-27T11:59:27.149Z,7.30
2018-09-27T12:01:54.193Z,2.90
2018-09-27T12:04:22.399Z,6.73
2018-09-27T12:06:48.979Z,4.20
2018-09-27T12:09:15.390Z,3.57
2018-09-27T12:11:41.929Z,3.13
2018-09-27T12:14:08.228Z,2.90
2018-09-27T12:16:35.196Z,3.53
2018-09-27T12:19:02.697Z,3.00
2018-09-27T12:21:30.123Z,2.70
2018-09-27T12:23:57.449Z,2.50
2018-09-27T12:26:23.765Z,3.70
2018-09-27T12:28:50.096Z,2.57
2018-09-27T12:31:16.763Z,4.57
2018-09-27T12:33:43.865Z,3.83
2018-09-27T12:36:10.145Z,4.50
2018-09-27T12:38:36.535Z,4.63
2018-09-27T12:41:02.997Z,4.33
2018-09-27T12:43:30.065Z,4.93
2018-09-27T12:45:56.442Z,5.67
2018-09-27T12:48:22.830Z,3.07
2018-09-27T12:50:49.115Z,3.33
2018-09-27T12:53:15.472Z,2.63
2018-09-27T12:55:44.225Z,4.10
2018-09-27T12:58:10.975Z,3.97
2018-09-27T13:00:37.262Z,3.83
2018-09-27T13:03:03.538Z,4.33
2018-09-27T13:05:30.588Z,3.37
2018-09-27T13:07:56.913Z,3.97
2018-09-27T13:10:23.368Z,2.77
2018-09-27T13:12:49.682Z,4.23
2018-09-27T13:15:15.958Z,3.20
2018-09-27T13:17:42.360Z,5.30
2018-09-27T13:20:08.677Z,3.57
2018-09-27T13:22:35.611Z,3.93
2018-09-27T13:25:02.062Z,4.17
2018-09-27T13:27:28.203Z,8.47
2018-09-27T13:29:55.222Z,4.23
2018-09-27T13:32:21.562Z,4.70
2018-09-27T13:34:48.014Z,4.33
2018-09-27T13:37:15.016Z,5.67
2018-09-27T13:39:41.328Z,5.50
2018-09-27T13:42:07.630Z,4.13
2018-09-27T13:44:34.030Z,7.80
2018-09-27T13:47:00.294Z,4.57
2018-09-27T13:49:28.828Z,7.33
2018-09-27T13:51:55.785Z,3.57
2018-09-27T13:54:22.885Z,5.00
2018-09-27T13:56:49.637Z,3.73
2018-09-27T13:59:16.392Z,5.63
2018-09-27T14:01:42.787Z,3.43
2018-09-27T14:04:09.857Z,4.90
2018-09-27T14:06:38.451Z,3.97
2018-09-27T14:09:04.765Z,4.10
2018-09-27T14:11:31.796Z,3.93
2018-09-27T14:13:58.123Z,7.20
2018-09-27T14:16:24.489Z,4.67
2018-09-27T14:18:53.754Z,4.13
2018-09-27T14:21:20.252Z,5.90
2018-09-27T14:23:57.178Z,3.43
2018-09-27T14:26:23.943Z,4.33
2018-09-27T14:28:51.024Z,3.63
2018-09-27T14:31:21.561Z,3.70
2018-09-27T14:33:48.267Z,5.20
2018-09-27T14:36:16.897Z,6.00
2018-09-27T14:38:43.169Z,4.60
2018-09-27T14:41:10.320Z,5.47
2018-09-27T14:43:37.960Z,4.77
2018-09-27T14:46:05.464Z,4.67
2018-09-27T14:48:32.873Z,5.37
2018-09-27T14:51:00.601Z,6.13
2018-09-27T14:53:29.803Z,5.40
2018-09-27T14:55:56.327Z,4.73
2018-09-27T14:58:22.600Z,4.47
2018-09-27T15:00:49.594Z,5.93
2018-09-27T15:03:15.917Z,7.53
2018-09-27T15:05:42.973Z,6.73
2018-09-27T15:08:10.035Z,9.63
2018-09-27T15:10:36.345Z,6.37
2018-09-27T15:15:39.568Z,7.50
2018-09-27T15:18:10.512Z,5.90
2018-09-27T15:20:45.725Z,7.43
2018-09-27T15:23:15.354Z,9.60
2018-09-27T15:25:43.585Z,10.90
2018-09-27T15:28:16.901Z,7.90
2018-09-27T15:30:44.411Z,11.60
2018-09-27T15:33:12.567Z,10.60
2018-09-27T15:35:41.954Z,12.53
2018-09-27T15:38:11.087Z,10.60
2018-09-27T15:40:39.966Z,11.97
2018-09-27T15:43:07.089Z,10.70
2018-09-27T15:45:35.761Z,11.17
2018-09-27T15:48:03.853Z,10.73
2018-09-27T15:50:32.032Z,11.13
2018-09-27T15:53:03.099Z,11.03
2018-09-27T15:55:34.676Z,9.63
2018-09-27T15:58:05.361Z,10.07
2018-09-27T16:00:34.412Z,9.13
2018-09-27T16:03:02.835Z,8.80
2018-09-27T16:05:33.078Z,8.53
2018-09-27T16:08:02.501Z,10.37
2018-09-27T16:10:31.280Z,7.33
2018-09-27T16:12:59.506Z,9.17
2018-09-27T16:15:27.468Z,7.10
2018-09-27T16:17:55.863Z,6.37
2018-09-27T16:20:24.493Z,6.20
2018-09-27T16:22:52.462Z,12.80
2018-09-27T16:28:01.616Z,5.47
2018-09-27T16:33:13.094Z,4.37
2018-09-27T16:35:44.725Z,5.43
2018-09-27T16:38:17.597Z,6.93
2018-09-27T16:40:49.919Z,4.30
2018-09-27T16:43:24.533Z,3.87
2018-09-27T16:45:55.650Z,5.03
2018-09-27T16:48:28.919Z,4.13
2018-09-27T16:50:58.653Z,6.60
2018-09-27T16:53:42.738Z,7.00
2018-09-27T16:56:22.849Z,4.40
2018-09-27T17:01:48.543Z,4.43
2018-09-27T17:07:11.412Z,8.63
2018-09-27T17:09:44.607Z,3.87
2018-09-27T17:12:14.462Z,5.77
2018-09-27T17:14:44.302Z,4.03
2018-09-27T17:17:13.769Z,5.00
2018-09-27T17:19:46.948Z,6.20
2018-09-27T17:22:26.430Z,6.23
2018-09-27T17:24:55.991Z,6.63
2018-09-27T17:27:33.945Z,5.40
2018-09-27T17:30:10.400Z,7.33
2018-09-27T17:32:50.092Z,6.47
2018-09-27T17:35:23.869Z,5.07
2018-09-27T17:38:00.095Z,6.37
2018-09-27T17:40:27.249Z,5.80
2018-09-27T17:42:55.392Z,6.60
2018-09-27T17:45:21.677Z,5.50
2018-09-27T17:47:48.059Z,6.13
2018-09-27T17:50:15.084Z,4.30
2018-09-27T17:52:42.404Z,5.43
2018-09-27T17:55:13.504Z,5.07
2018-09-27T17:57:43.531Z,4.83
2018-09-27T18:00:19.347Z,4.07
2018-09-27T18:02:45.704Z,7.57
2018-09-27T18:05:18.984Z,16.73
2018-09-27T18:07:38.755Z,10.00
2018-09-27T18:10:05.030Z,5.47
2018-09-27T18:12:31.787Z,5.63
2018-09-27T18:14:58.086Z,6.77
2018-09-27T18:17:24.635Z,11.93
2018-09-27T18:19:50.947Z,7.47
2018-09-27T18:22:17.982Z,8.57
2018-09-27T18:24:45.073Z,7.43
2018-09-27T18:27:11.346Z,8.33
2018-09-27T18:29:37.630Z,7.07
2018-09-27T18:32:04.710Z,7.17
2018-09-27T18:34:31.078Z,6.73
2018-09-27T18:36:57.333Z,5.23
2018-09-27T18:39:23.716Z,5.73
2018-09-27T18:41:50.005Z,7.17
2018-09-27T18:44:18.167Z,8.70
2018-09-27T18:46:44.605Z,12.07
2018-09-27T18:49:10.891Z,13.43
2018-09-27T18:51:37.195Z,11.23
2018-09-27T18:54:03.492Z,12.50
2018-09-27T18:56:29.776Z,10.67
2018-09-27T18:58:56.052Z,14.47
2018-09-27T19:01:22.305Z,26.77
2018-09-27T19:03:48.620Z,10.53
2018-09-27T19:06:14.913Z,17.87
2018-09-27T19:08:41.186Z,12.63
2018-09-27T19:11:07.500Z,15.50
2018-09-27T19:13:34.502Z,6.80
2018-09-27T19:16:01.842Z,14.17
2018-09-27T19:18:28.333Z,9.17
2018-09-27T19:20:54.663Z,14.87
2018-09-27T19:23:21.720Z,6.93
2018-09-27T19:25:48.141Z,9.97
2018-09-27T19:28:14.448Z,7.70
2018-09-27T19:30:40.705Z,10.53
2018-09-27T19:33:07.758Z,7.50
2018-09-27T19:35:35.186Z,11.60
2018-09-27T19:38:02.986Z,12.60
2018-09-27T19:40:29.280Z,13.20
2018-09-27T19:42:55.584Z,24.03
2018-09-27T19:45:22.209Z,15.60
2018-09-27T19:47:50.688Z,13.70
2018-09-27T19:50:16.978Z,18.00
2018-09-27T19:52:48.721Z,17.77
2018-09-27T19:55:16.856Z,14.00
2018-09-27T19:57:45.494Z,10.60
2018-09-27T20:00:11.958Z,12.97
2018-09-27T20:02:38.326Z,17.70
2018-09-27T20:05:04.595Z,22.87
2018-09-27T20:07:30.989Z,9.87
2018-09-27T20:09:57.292Z,7.03
2018-09-27T20:12:23.570Z,14.10
2018-09-27T20:14:49.891Z,12.60
2018-09-27T20:17:16.161Z,11.53
2018-09-27T20:19:42.489Z,11.77
2018-09-27T20:22:08.732Z,8.10
2018-09-27T20:24:35.040Z,8.70
2018-09-27T20:27:01.519Z,8.97
2018-09-27T20:29:27.885Z,12.40
2018-09-27T20:31:54.181Z,10.53
2018-09-27T20:34:21.228Z,14.40
2018-09-27T20:36:47.577Z,18.23
2018-09-27T20:39:14.041Z,9.43
2018-09-27T20:41:40.451Z,11.87
2018-09-27T20:44:06.765Z,13.10
2018-09-27T20:46:33.067Z,10.67
2018-09-27T20:49:00.597Z,11.73
2018-09-27T20:51:26.916Z,18.07
2018-09-27T20:53:53.737Z,21.00
2018-09-27T20:56:20.068Z,23.50
2018-09-27T20:58:53.656Z,18.10
2018-09-27T21:01:19.984Z,16.00
2018-09-27T21:03:47.335Z,11.93
2018-09-27T21:06:13.697Z,12.40
2018-09-27T21:08:39.978Z,11.00
2018-09-27T21:11:06.349Z,12.07
2018-09-27T21:13:33.248Z,12.80
2018-09-27T21:15:59.928Z,10.53
2018-09-27T21:18:26.270Z,13.03
2018-09-27T21:20:52.560Z,8.87
2018-09-27T21:23:18.986Z,11.30
2018-09-27T21:25:45.247Z,7.80
2018-09-27T21:28:11.552Z,10.03
2018-09-27T21:30:37.819Z,9.80
2018-09-27T21:33:04.149Z,14.90
2018-09-27T21:35:30.424Z,7.53
2018-09-27T21:37:56.738Z,6.20
2018-09-27T21:40:23.042Z,12.70
2018-09-27T21:42:49.330Z,6.77
2018-09-27T21:45:15.590Z,10.20
2018-09-27T21:47:41.883Z,8.60
2018-09-27T21:50:08.344Z,14.17
2018-09-27T21:52:35.971Z,21.87
2018-09-27T21:55:02.569Z,55.23
2018-09-27T21:57:28.852Z,45.00
2018-09-27T21:59:55.104Z,29.80
2018-09-27T22:02:22.146Z,28.90
2018-09-27T22:04:48.440Z,20.13
2018-09-27T22:07:14.705Z,10.37
2018-09-27T22:09:41.604Z,16.10
2018-09-27T22:12:08.905Z,9.80
2018-09-27T22:14:35.236Z,8.97
2018-09-27T22:17:03.444Z,9.63
2018-09-27T22:19:29.755Z,8.27
2018-09-27T22:22:03.199Z,9.20
2018-09-27T22:24:30.180Z,9.53
2018-09-27T22:26:57.242Z,9.70
2018-09-27T22:29:23.485Z,9.47
2018-09-27T22:31:51.039Z,8.07
2018-09-27T22:34:17.325Z,8.40
2018-09-27T22:36:43.630Z,9.57
2018-09-27T22:39:09.901Z,9.50
2018-09-27T22:41:36.715Z,9.67
2018-09-27T22:44:03.712Z,8.63
2018-09-27T22:46:30.505Z,8.20
2018-09-27T22:48:56.777Z,8.57
2018-09-27T22:51:24.108Z,9.33
2018-09-27T22:53:50.389Z,7.93
2018-09-27T22:56:16.659Z,11.73
2018-09-27T22:58:42.925Z,8.73
2018-09-27T23:01:09.197Z,11.13
2018-09-27T23:03:35.536Z,8.17
2018-09-27T23:06:01.811Z,8.67
2018-09-27T23:08:28.111Z,9.37
2018-09-27T23:10:54.374Z,7.97
2018-09-27T23:13:20.696Z,9.87
2018-09-27T23:15:46.974Z,10.30
2018-09-27T23:18:13.268Z,11.27
2018-09-27T23:20:39.549Z,11.40
2018-09-27T23:23:05.872Z,8.67
2018-09-27T23:25:32.182Z,8.30
2018-09-27T23:27:58.489Z,7.67
2018-09-27T23:30:24.724Z,8.30
2018-09-27T23:32:50.979Z,8.70
2018-09-27T23:35:18.052Z,8.30
2018-09-27T23:37:44.297Z,7.80
2018-09-27T23:40:10.651Z,8.30
2018-09-27T23:42:36.923Z,8.50
2018-09-27T23:45:03.999Z,11.73
2018-09-27T23:47:30.345Z,8.33
2018-09-27T23:49:56.635Z,8.17
2018-09-27T23:52:23.762Z,9.00
2018-09-27T23:54:50.034Z,8.87
2018-09-27T23:57:16.370Z,9.83
2018-09-27T23:59:42.646Z,12.57
